Terminal Aerodrome Forecast
Issued by NWS Shreveport, LA

Home | Current Version | Previous Version | Text Only | Print | Product List | Glossary On
Versions: 1 2 3 4 5 6 7 8 9 10 11 12 13 14 15 16 17 18 19 20 21 22 23
000
FTUS44 KSHV 161351 AAA
TAFMLU
TAF AMD
KMLU 161351Z 1614/1712 13005KT P6SM OVC011
     FM161600 16009KT P6SM -RA OVC013
      TEMPO 1616/1618 5SM -SHRA BR OVC010
     FM161800 18010KT P6SM -RA BKN015
     FM162000 18010KT P6SM VCSH BKN025
     FM170000 18006KT P6SM BKN035
     FM170400 18004KT P6SM BKN015
     FM170600 20004KT P6SM OVC007=

USA.gov is the U.S. government's official web portal to all federal, state and local government web resources and services.